Date,TemperatureHighF,TemperatureAvgF,TemperatureLowF,DewpointHighF,DewpointAvgF,DewpointLowF,HumidityHigh,HumidityAvg,HumidityLow,PressureMaxIn,PressureMinIn,WindSpeedMaxMPH,WindSpeedAvgMPH,GustSpeedMaxMPH,PrecipitationSumIn
2013-1-1,32,13,2,30,6,-4,90,75,68,29.94,29.63,9,3,17,0.00
2013-1-2,17,7,-10,13,0,-17,83,74,64,30.26,29.82,8,2,12,0.00
2013-1-3,10,0,-11,6,-7,-18,82,74,69,30.26,29.83,2,0,3,0.01
2013-1-4,32,28,12,26,23,8,89,81,75,29.83,29.65,12,6,22,0.01
2013-1-5,32,23,8,27,15,3,85,71,56,30.22,29.72,10,2,22,0.00
2013-1-6,29,23,18,27,19,11,93,87,74,30.05,29.79,3,1,22,0.20
2013-1-7,26,18,8,21,13,3,85,79,73,30.38,30.04,5,2,22,0.00
2013-1-8,34,32,27,29,26,21,89,79,72,30.29,30.05,7,3,22,0.00
2013-1-9,42,31,11,33,25,8,92,79,64,30.27,29.76,11,2,22,0.02
2013-1-10,40,33,21,29,24,18,89,69,54,30.52,30.00,6,2,22,0.00
2013-1-11,34,28,17,32,25,14,94,87,75,30.46,29.93,4,1,22,0.02
2013-1-12,53,41,34,45,37,32,95,89,73,29.95,29.88,2,0,22,0.00
2013-1-13,57,44,36,52,41,35,97,91,78,29.96,29.67,5,1,7,0.20
2013-1-14,47,39,32,47,31,22,98,75,57,30.25,29.62,8,3,14,0.08
2013-1-15,34,30,24,22,19,16,80,64,50,30.32,30.18,4,1,5,0.00
2013-1-16,36,31,25,28,24,20,84,75,67,30.16,29.66,7,2,9,0.00
2013-1-17,35,15,0,31,4,-11,93,62,46,30.22,29.66,10,4,12,0.03
2013-1-18,24,10,-4,14,-2,-11,81,59,38,30.34,30.07,5,1,13,0.00
2013-1-19,41,35,24,34,26,11,92,72,48,30.02,29.52,7,4,13,0.04
2013-1-20,47,30,9,35,17,-2,85,59,42,29.99,29.19,14,8,25,0.06
2013-1-21,8,5,2,-1,-5,-8,72,62,57,30.06,29.84,5,1,13,0.00
2013-1-22,8,4,0,1,-2,-6,77,74,68,29.93,29.80,3,1,5,0.00
2013-1-23,-2,-7,-12,-15,-19,-22,68,57,43,30.26,30.15,3,1,12,0.00
2013-1-24,5,-1,-8,-10,-14,-18,64,54,45,30.42,30.18,7,2,14,0.00
2013-1-25,12,5,-3,-3,-7,-11,70,57,46,30.41,30.11,3,1,7,0.00
2013-1-26,16,9,0,5,-2,-6,78,62,47,30.32,30.10,3,0,6,0.00
2013-1-27,18,11,4,4,-1,-6,71,58,34,30.53,30.33,2,1,6,0.00
2013-1-28,22,19,14,20,12,2,90,75,49,30.41,29.91,4,1,6,0.20
2013-1-29,31,21,11,29,18,8,95,86,80,30.10,29.74,3,1,6,0.00
2013-1-30,64,46,32,53,42,30,98,85,58,29.71,29.09,14,3,17,0.03
2013-1-31,53,34,14,51,25,5,98,71,46,29.53,28.76,15,8,22,0.57
2013-2-1,16,11,8,3,-1,-2,67,58,46,30.12,29.54,5,3,11,0.00
2013-2-2,14,11,6,10,4,-4,84,73,58,30.16,29.96,3,1,6,0.06
2013-2-3,17,11,5,10,6,0,82,78,70,29.98,29.75,4,1,6,0.00
2013-2-4,17,11,-1,11,1,-8,84,65,39,29.91,29.75,5,2,11,0.01
2013-2-5,21,8,-13,5,-6,-20,73,57,29,29.98,29.82,1,0,6,0.00
2013-2-6,25,16,9,20,3,-10,83,58,36,30.36,29.77,8,2,11,0.00
2013-2-7,9,4,-1,-2,-8,-13,64,57,49,30.56,30.36,8,3,13,0.00
2013-2-8,13,8,4,10,4,-4,85,81,67,30.35,29.99,10,6,14,0.16
2013-2-9,19,11,-2,10,4,-8,84,75,62,30.36,30.07,8,2,11,0.01
2013-2-10,28,8,-13,13,-3,-20,80,63,34,30.43,30.11,4,0,7,0.00
2013-2-11,38,24,14,36,18,4,91,77,64,30.10,29.50,9,2,9,0.06
2013-2-12,38,35,34,32,31,28,93,85,68,29.69,29.49,9,6,14,0.05
2013-2-13,36,32,28,27,25,22,86,75,58,29.78,29.69,3,1,10,0.00
2013-2-14,38,32,28,27,23,20,83,68,47,29.85,29.71,4,1,5,0.00
2013-2-15,39,34,24,34,26,16,93,72,57,29.93,29.68,14,6,20,0.02
2013-2-16,24,16,7,13,4,0,73,60,43,30.04,29.94,4,1,5,0.00
2013-2-17,15,9,3,2,-2,-4,74,62,49,29.97,29.81,6,3,14,0.00
2013-2-18,20,10,3,1,-3,-6,71,57,37,30.19,29.98,5,2,14,0.00
2013-2-19,33,25,10,32,15,1,94,68,47,30.04,29.54,8,2,14,0.24
2013-2-20,31,25,12,23,16,7,87,71,54,29.84,29.56,9,6,16,0.03
2013-2-21,21,13,7,15,6,-1,80,73,67,30.33,29.85,6,4,14,0.03
2013-2-22,34,29,22,24,21,18,84,74,64,30.39,30.11,7,2,9,0.00
2013-2-23,34,31,28,33,28,22,96,88,78,30.10,29.81,2,1,4,0.04
2013-2-24,38,34,32,33,30,26,96,83,63,29.90,29.75,3,1,6,0.00
2013-2-25,39,34,30,32,30,27,91,83,70,30.17,29.91,1,0,5,0.00
2013-2-26,41,35,26,30,28,23,91,78,62,30.24,29.98,7,2,7,0.00
2013-2-27,36,34,32,32,30,27,97,88,71,29.97,29.56,12,6,20,0.60
2013-2-28,39,34,32,35,32,31,97,93,84,29.61,29.47,5,1,7,0.06
2013-3-1,34,32,28,31,28,24,94,85,76,29.79,29.61,6,2,9,0.00
2013-3-2,27,27,27,24,23,22,86,84,82,29.79,29.78,2,2,5,0.00
2013-3-3,28,23,19,18,16,14,81,75,61,29.77,29.71,4,2,16,0.00
2013-3-4,28,23,19,21,15,12,82,73,57,29.91,29.74,5,3,15,0.00
2013-3-5,36,28,23,27,21,18,83,75,61,30.07,29.91,3,1,12,0.01
2013-3-6,40,36,32,31,29,27,89,77,65,30.16,30.05,11,5,12,0.00
2013-3-7,34,32,30,28,23,21,78,70,62,30.23,30.13,9,4,12,0.00
2013-3-8,42,32,24,24,21,20,84,64,42,30.32,30.18,5,2,12,0.00
2013-3-9,47,31,16,24,20,13,87,68,35,30.35,30.25,2,0,12,0.00
2013-3-10,47,36,24,30,26,20,87,70,47,30.23,29.95,3,0,3,0.00
2013-3-11,51,41,36,35,32,29,80,69,42,29.98,29.70,6,0,6,0.00
2013-3-12,49,42,37,45,39,32,95,87,63,29.75,29.64,7,3,11,0.14
2013-3-13,41,36,33,32,29,23,86,74,51,29.77,29.69,7,3,7,0.00
2013-3-14,32,21,15,27,10,4,91,64,52,29.92,29.68,6,4,19,0.05
2013-3-15,35,25,15,28,15,5,89,66,53,29.92,29.52,6,2,13,0.02
2013-3-16,25,20,12,16,6,2,70,55,44,29.90,29.76,5,2,13,0.00
2013-3-17,25,17,6,6,1,-4,78,52,28,30.31,29.90,5,2,7,0.00
2013-3-18,30,21,4,18,6,-1,78,55,31,30.38,29.97,7,3,10,0.00
2013-3-19,36,31,24,34,28,18,94,90,73,29.94,29.62,6,2,12,0.21
2013-3-20,33,28,20,27,22,16,87,78,57,29.68,29.60,8,4,10,0.00
2013-3-21,35,28,22,18,16,14,73,60,43,29.64,29.58,9,5,13,0.00
2013-3-22,32,28,25,24,20,12,88,71,46,29.72,29.58,4,2,11,0.01
2013-3-23,38,34,27,24,22,20,80,62,50,29.82,29.69,7,4,16,0.00
2013-3-24,38,35,33,26,24,22,73,64,54,29.86,29.79,5,2,14,0.00
2013-3-25,42,32,20,28,24,18,90,75,52,29.74,29.59,7,2,10,0.00
2013-3-26,48,39,30,25,23,20,73,53,36,29.76,29.64,6,2,9,0.00
2013-3-27,46,40,35,29,28,23,78,61,50,29.90,29.73,4,2,7,0.00
2013-3-28,51,42,36,36,32,27,75,67,55,30.02,29.89,4,1,7,0.00
2013-3-29,48,41,36,37,32,29,91,71,52,30.05,30.00,4,2,8,0.04
2013-3-30,51,39,27,30,22,13,92,57,24,30.09,29.99,4,1,6,0.00
2013-3-31,58,42,27,41,28,19,92,64,25,29.98,29.58,11,3,12,0.08
2013-4-1,44,38,28,41,26,9,94,65,31,29.77,29.43,13,5,25,0.03
2013-4-2,34,28,23,17,11,6,74,50,31,29.86,29.75,8,4,25,0.00
2013-4-3,40,32,25,17,10,6,53,41,25,30.17,29.87,9,5,24,0.00
2013-4-4,48,38,26,22,17,12,69,45,26,30.20,29.83,12,5,24,0.00
2013-4-5,41,36,31,34,23,13,93,60,36,30.00,29.75,10,4,24,0.04
2013-4-6,41,32,24,16,9,1,64,39,22,30.27,30.01,7,2,17,0.00
2013-4-7,62,46,33,39,29,12,81,54,27,30.12,29.58,13,4,23,0.04
2013-4-8,50,44,40,36,32,30,79,64,49,30.10,29.83,5,2,16,0.03
2013-4-9,50,44,38,43,39,36,95,84,69,29.98,29.68,6,3,12,0.26
2013-4-10,49,45,41,44,37,29,94,74,55,29.98,29.87,4,1,6,0.02
2013-4-11,40,35,32,27,18,14,61,50,37,30.15,29.93,6,3,13,0.00
2013-4-12,34,33,29,33,26,14,95,80,42,30.09,29.65,8,4,21,0.71
2013-4-13,42,39,34,39,37,33,97,91,83,29.70,29.65,5,3,16,0.00
2013-4-14,45,40,31,36,32,27,93,73,50,30.17,29.81,4,2,14,0.03
2013-4-15,59,44,28,38,32,25,91,66,35,30.25,30.02,8,2,13,0.00
2013-4-16,62,58,43,51,43,37,80,59,51,30.02,29.84,14,6,16,0.01
2013-4-17,54,45,39,32,29,20,74,55,27,30.29,30.09,5,2,14,0.00
2013-4-18,73,53,40,52,39,24,83,59,39,30.26,29.64,12,5,34,0.02
2013-4-19,77,64,44,57,51,35,89,64,42,29.65,29.27,14,9,37,0.14
2013-4-20,47,40,32,35,28,18,86,62,47,30.27,29.58,12,8,34,0.09
2013-4-21,45,36,29,22,16,13,64,46,27,30.62,30.32,4,2,13,0.00
2013-4-22,62,46,28,24,19,13,79,41,15,30.61,30.36,5,1,7,0.00
2013-4-23,60,49,34,38,27,19,76,45,28,30.36,29.99,7,2,14,0.00
2013-4-24,73,59,39,55,43,35,86,60,28,29.91,29.47,11,3,14,0.06
2013-4-25,54,46,38,43,30,23,88,56,30,30.19,29.60,14,4,30,0.02
2013-4-26,55,46,40,40,34,27,93,67,36,30.38,30.20,6,1,6,0.13
2013-4-27,59,46,33,39,33,29,87,63,36,30.39,30.22,3,1,4,0.00
2013-4-28,72,56,37,44,38,34,90,56,27,30.23,29.98,6,2,9,0.00
2013-4-29,63,59,51,46,44,41,74,59,45,30.05,29.99,7,2,10,0.00
2013-4-30,71,61,53,53,50,46,92,69,49,30.17,30.05,4,1,9,0.02
2013-5-1,80,65,48,54,47,41,92,58,25,30.32,30.18,4,1,6,0.00
2013-5-2,81,68,51,52,44,35,82,47,23,30.35,30.23,6,2,8,0.00
2013-5-3,74,64,53,49,40,31,74,45,21,30.32,30.19,7,4,11,0.00
2013-5-4,73,57,46,42,39,35,82,56,26,30.25,30.20,3,0,7,0.00
2013-5-5,81,66,50,52,42,33,83,48,18,30.13,30.00,3,1,5,0.00
2013-5-6,80,66,50,47,39,27,77,41,16,30.09,29.93,4,2,7,0.00
2013-5-7,82,67,49,51,42,28,75,45,14,30.03,29.93,5,1,6,0.00
2013-5-8,84,67,51,61,50,43,95,62,25,30.02,29.88,4,1,7,0.30
2013-5-9,77,66,57,61,56,46,97,74,34,29.90,29.75,6,1,14,0.16
2013-5-10,67,61,56,59,55,50,96,79,56,29.91,29.68,5,2,13,0.01
2013-5-11,62,56,50,60,53,45,96,88,76,29.67,29.51,10,3,13,0.35
2013-5-12,53,48,39,46,38,26,89,69,35,29.66,29.54,15,7,18,0.06
2013-5-13,52,44,38,36,31,28,74,62,41,29.97,29.66,10,5,14,0.00
2013-5-14,59,47,33,35,30,24,92,57,26,30.06,29.93,4,1,13,0.00
2013-5-15,63,45,33,48,34,28,84,68,31,29.95,29.44,6,1,13,0.00
2013-5-16,69,58,50,47,41,35,80,55,29,29.88,29.52,9,4,16,0.00
2013-5-17,70,58,44,44,38,27,82,52,20,30.13,29.88,3,1,11,0.00
2013-5-18,73,59,43,45,38,30,88,52,21,30.22,30.12,5,1,5,0.00
2013-5-19,64,57,46,58,50,42,94,77,59,30.16,29.96,4,1,6,0.03
2013-5-20,74,65,56,61,58,55,96,79,55,29.96,29.87,3,1,6,0.00
2013-5-21,65,60,57,60,56,54,96,88,71,29.91,29.70,10,3,13,0.50
2013-5-22,77,66,56,67,62,55,96,88,68,29.76,29.52,9,1,9,0.21
2013-5-23,76,66,51,67,61,47,96,83,53,29.75,29.58,8,4,8,0.34
2013-5-24,54,48,43,47,41,36,94,79,54,30.04,29.75,8,5,17,0.30
2013-5-25,55,49,46,43,37,34,87,63,46,30.07,30.00,10,5,17,0.01
2013-5-26,64,52,46,43,38,30,86,63,28,30.01,29.93,9,4,17,0.08
2013-5-27,69,58,47,44,35,30,64,44,25,30.13,30.01,5,1,17,0.00
2013-5-28,73,60,42,53,42,33,87,55,26,30.12,29.94,5,1,17,0.00
2013-5-29,78,67,56,66,59,45,96,77,51,29.93,29.75,9,3,17,0.21
2013-5-30,85,74,63,66,64,61,93,72,50,29.99,29.86,5,3,17,0.00
2013-5-31,90,79,68,69,63,60,92,60,37,29.96,29.80,9,4,17,0.15
2013-6-1,86,77,71,70,65,62,94,67,50,29.84,29.63,9,4,17,0.38
2013-6-2,77,72,68,69,65,59,96,80,56,29.68,29.54,10,5,17,0.77
2013-6-3,67,59,53,60,50,44,91,72,50,29.81,29.66,9,4,18,0.02
2013-6-4,68,58,48,45,43,40,82,57,38,30.05,29.81,5,2,17,0.00
2013-6-5,67,61,55,46,41,36,70,49,32,30.16,30.06,4,1,6,0.00
2013-6-6,56,54,53,52,50,45,96,84,67,30.09,29.97,4,2,5,0.26
2013-6-7,58,56,53,57,54,52,97,96,92,29.96,29.79,4,2,6,0.51
2013-6-8,62,58,54,58,55,53,98,90,77,29.95,29.74,3,1,6,0.00
2013-6-9,80,67,58,58,55,48,92,68,33,30.09,29.94,6,2,12,0.00
2013-6-10,79,67,55,62,56,51,93,73,37,30.11,29.82,3,1,5,0.01
2013-6-11,62,59,56,60,58,55,96,96,92,29.80,29.54,7,4,12,1.62
2013-6-12,76,64,56,57,54,50,97,72,44,29.80,29.68,5,2,9,0.04
2013-6-13,71,63,55,60,56,53,95,78,56,29.75,29.59,4,1,7,0.00
2013-6-14,76,66,54,56,51,41,96,64,31,29.82,29.65,6,2,9,0.00
2013-6-15,76,65,50,50,45,39,85,52,29,29.91,29.79,7,3,11,0.00
2013-6-16,64,60,55,58,53,45,96,81,55,29.81,29.60,4,1,10,0.57
2013-6-17,67,62,52,60,55,49,97,80,60,29.89,29.66,5,2,11,0.01
2013-6-18,71,60,48,52,46,40,95,66,34,29.96,29.87,4,1,11,0.00
2013-6-19,70,60,48,48,41,35,86,54,29,30.09,29.97,3,1,11,0.00
2013-6-20,76,63,46,49,47,44,92,59,32,30.18,30.10,5,2,11,0.00
2013-6-21,83,70,58,59,52,45,70,53,37,30.17,30.09,3,1,11,0.00
2013-6-22,71,67,63,66,62,56,96,83,67,30.11,29.97,3,1,11,0.04
2013-6-23,83,72,64,72,68,63,98,88,70,30.00,29.83,3,1,11,0.00
2013-6-24,88,77,70,72,69,63,90,76,55,29.90,29.75,8,3,12,0.41
2013-6-25,84,76,72,72,68,65,89,77,63,29.78,29.63,7,4,11,0.04
2013-6-26,84,74,68,70,67,65,93,80,60,29.69,29.64,5,2,11,0.00
2013-6-27,81,73,66,69,66,62,94,80,57,29.70,29.63,7,2,11,0.00
2013-6-28,66,60,57,60,58,56,96,92,81,29.64,29.41,7,3,11,1.05
2013-6-29,77,66,60,62,60,59,96,81,55,29.60,29.42,4,1,11,0.04
2013-6-30,78,69,61,62,60,58,96,76,53,29.86,29.60,4,1,11,0.00
2013-7-1,72,67,62,61,58,52,92,74,52,30.03,29.86,7,2,11,0.01
2013-7-2,72,66,60,64,59,53,90,79,71,30.04,30.00,5,2,14,0.00
2013-7-3,84,72,62,71,65,60,94,81,62,30.09,30.02,2,0,14,0.00
2013-7-4,84,76,68,76,70,67,95,83,66,30.08,29.96,5,2,6,0.47
2013-7-5,86,79,72,71,69,68,88,73,57,30.04,29.93,7,3,7,0.00
2013-7-6,86,77,72,70,66,62,89,72,46,30.00,29.90,7,3,12,0.00
2013-7-7,78,73,70,72,68,62,96,84,69,29.93,29.84,4,1,5,0.41
2013-7-8,80,71,64,68,65,60,97,82,61,29.96,29.84,5,2,6,1.05
2013-7-9,86,76,65,72,68,63,93,77,60,29.98,29.83,2,0,4,0.00
2013-7-10,83,76,69,73,70,64,95,82,68,29.83,29.55,8,4,12,1.01
2013-7-11,78,71,66,69,62,55,95,74,44,29.96,29.63,4,2,12,0.00
2013-7-12,77,67,59,60,56,53,90,70,44,30.11,29.97,5,1,12,0.00
2013-7-13,84,72,58,68,62,56,94,72,46,30.20,30.13,3,1,12,0.00
2013-7-14,90,80,71,71,69,67,89,71,48,30.22,30.12,3,1,12,0.00
2013-7-15,91,80,70,71,67,64,88,67,42,30.16,30.08,3,1,12,0.00
2013-7-16,92,79,70,72,69,66,92,73,43,30.16,30.07,2,1,12,0.00
2013-7-17,92,82,74,75,71,67,88,71,55,30.08,29.89,7,3,12,0.08
2013-7-18,88,77,71,75,71,70,94,82,59,29.95,29.81,5,2,17,0.14
2013-7-19,92,82,72,75,72,69,95,74,49,29.81,29.50,14,7,24,0.00
2013-7-22,78,70,54,61,55,51,93,61,42,29.96,29.74,3,1,6,0.00
2013-7-23,85,74,65,69,64,58,87,71,53,29.72,29.44,6,2,8,0.06
2013-7-24,73,63,55,65,51,45,83,66,48,29.96,29.46,6,3,13,0.00
2013-7-25,72,61,48,52,49,46,93,68,43,30.10,29.97,4,1,9,0.00
2013-7-26,77,64,50,59,54,48,93,71,43,30.07,29.94,3,1,8,0.00
2013-7-27,81,68,52,65,58,50,95,73,52,29.95,29.81,4,1,8,0.00
2013-7-28,76,70,65,69,66,64,96,89,72,29.86,29.78,4,1,8,0.28
2013-7-29,74,66,57,64,58,54,96,77,51,29.99,29.86,6,2,10,0.38
2013-7-30,75,67,58,60,58,56,95,75,54,30.06,30.00,4,2,11,0.00
2013-7-31,81,70,58,63,59,54,95,70,40,30.05,29.91,4,1,8,0.00
2013-8-1,78,69,64,67,64,60,95,83,61,29.89,29.66,6,1,10,0.60
2013-8-2,77,69,62,63,60,56,96,76,49,29.75,29.69,7,3,10,0.00
2013-8-3,75,67,59,61,58,54,96,75,48,29.76,29.68,5,3,11,0.10
2013-8-4,71,64,58,60,56,52,94,77,51,29.92,29.75,5,2,9,0.01
2013-8-5,75,62,50,52,49,42,95,66,36,30.00,29.92,3,1,8,0.00
2013-8-6,80,67,55,59,53,47,89,64,31,30.00,29.95,3,1,8,0.00
2013-8-7,80,70,58,66,59,54,87,70,52,29.97,29.80,8,3,16,0.02
2013-8-8,83,75,69,70,66,63,92,74,53,29.88,29.79,4,2,8,0.00
2013-8-9,80,73,68,69,67,64,95,84,64,29.83,29.68,7,1,8,0.39
2013-8-10,73,67,60,66,53,48,93,63,41,29.95,29.71,4,2,9,0.00
2013-8-11,77,67,56,57,55,52,94,68,43,30.00,29.91,6,3,9,0.00
2013-8-12,78,69,58,58,56,54,90,65,43,29.92,29.78,6,2,10,0.00
2013-8-13,76,66,61,65,61,56,96,87,63,29.77,29.59,5,1,8,0.41
2013-8-14,69,62,58,58,53,49,93,73,49,29.90,29.62,7,3,11,0.09
2013-8-15,75,63,52,56,52,50,93,71,43,29.98,29.90,9,4,15,0.00
2013-8-16,76,66,56,62,57,53,92,74,53,30.14,29.98,4,1,10,0.00
2013-8-17,78,65,53,59,54,48,95,71,37,30.23,30.14,2,0,4,0.00
2013-8-18,82,68,54,58,54,51,94,65,36,30.18,29.98,4,1,4,0.00
2013-8-19,82,71,62,62,59,57,90,68,45,29.99,29.88,4,2,7,0.00
2013-8-20,84,74,64,65,62,60,86,67,48,29.98,29.91,7,3,10,0.00
2013-8-21,86,76,67,68,64,60,79,67,52,30.03,29.87,6,4,14,0.00
2013-8-22,77,71,64,70,65,62,97,83,70,29.89,29.76,5,3,12,1.33
2013-8-23,72,65,58,62,56,52,95,74,50,30.12,29.85,4,2,6,0.00
2013-8-24,76,63,50,56,52,48,95,70,39,30.28,30.13,3,1,5,0.00
2013-8-25,77,66,54,61,54,47,92,68,35,30.27,30.01,4,2,9,0.02
2013-8-26,77,71,64,70,66,61,96,86,75,30.00,29.78,6,3,9,0.15
2013-8-27,78,72,68,71,69,67,96,90,75,29.84,29.78,3,1,6,0.00
2013-8-28,84,74,63,71,67,62,96,81,56,29.88,29.79,5,0,8,0.01
2013-8-29,79,70,64,69,65,62,95,85,64,29.99,29.88,4,1,6,0.00
2013-8-30,82,72,63,69,65,61,96,81,58,29.92,29.68,6,2,7,0.06
2013-8-31,77,71,67,69,67,66,97,89,71,29.74,29.66,2,0,6,0.00
2013-9-1,79,72,66,69,66,62,95,80,63,29.80,29.72,5,2,6,0.00
2013-9-2,76,68,64,69,65,62,97,90,78,29.71,29.57,3,1,6,0.45
2013-9-3,71,66,58,65,58,56,96,79,61,29.74,29.60,6,3,11,0.00
2013-9-4,67,62,57,61,58,50,96,86,73,29.86,29.74,6,2,6,0.03
2013-9-5,63,57,47,51,44,35,91,64,36,30.11,29.86,7,2,8,0.00
2013-9-6,68,56,43,50,43,40,92,65,36,30.18,29.95,8,3,12,0.00
2013-9-7,71,63,58,60,55,50,95,77,63,29.95,29.76,8,4,15,0.02
2013-9-8,62,58,48,60,46,38,96,68,41,30.04,29.74,7,3,11,0.02
2013-9-9,69,56,43,54,46,41,92,73,42,30.10,29.90,7,2,10,0.00
2013-9-10,71,63,56,66,60,52,97,93,85,29.92,29.82,3,0,6,0.36
2013-9-11,90,78,65,73,70,64,96,79,54,29.88,29.78,7,3,14,0.86
2013-9-12,74,70,66,70,68,62,97,91,78,29.81,29.56,6,2,14,1.30
2013-9-13,65,56,51,61,50,46,92,83,75,29.88,29.59,6,4,18,0.00
2013-9-14,63,53,46,47,44,41,85,72,49,29.99,29.86,4,2,14,0.00
2013-9-15,68,58,49,56,50,46,92,77,58,30.01,29.93,7,4,14,0.04
2013-9-16,56,52,47,54,43,35,96,74,48,30.30,29.93,7,4,14,0.17
2013-9-17,65,51,38,46,41,37,95,73,42,30.42,30.24,3,1,14,0.00
2013-9-18,72,56,43,52,46,41,94,71,37,30.23,30.03,4,1,14,0.00
2013-9-19,76,60,44,57,50,43,95,74,40,30.05,29.94,4,1,14,0.00
2013-9-20,83,66,51,61,55,50,95,73,39,29.96,29.72,6,1,9,0.00
2013-9-21,72,66,60,64,59,56,97,80,64,29.72,29.50,7,3,10,1.20
2013-9-22,60,53,48,59,48,42,97,83,67,29.89,29.47,5,2,7,0.30
2013-9-23,53,49,44,43,41,39,86,74,62,30.04,29.90,3,1,7,0.00
2013-9-24,65,53,44,48,43,40,89,70,45,30.02,29.87,5,1,7,0.00
2013-9-25,68,54,42,51,45,41,96,76,47,29.92,29.87,2,1,4,0.00
2013-9-26,64,41,49,49,4,-100,92,50,53,30.11,30.03,5,-292,7,0.00
2013-9-27,66,54,44,53,48,42,95,81,57,30.22,30.11,5,1,7,0.00
2013-9-28,73,57,44,54,49,43,96,79,47,30.30,30.14,2,0,5,0.00
2013-9-29,76,60,46,53,48,44,95,72,33,30.14,29.94,6,1,7,0.00
2013-9-30,76,60,48,56,51,46,94,75,44,29.98,29.88,3,0,3,0.00
2013-10-1,74,64,56,60,55,52,90,73,49,29.90,29.77,5,2,10,0.00
2013-10-2,78,67,58,62,52,43,91,63,30,29.90,29.74,7,4,11,0.00
2013-10-3,73,60,50,53,48,44,88,66,36,30.05,29.91,3,1,6,0.00
2013-10-4,62,57,50,51,49,46,93,76,63,30.03,29.97,6,2,7,0.00
2013-10-5,66,58,53,47,44,40,79,59,40,30.08,30.02,6,2,8,0.00
2013-10-6,57,54,50,56,46,36,97,76,53,30.06,29.75,7,3,10,0.50
2013-10-7,78,63,55,62,56,44,97,79,54,29.79,29.45,13,6,18,0.45
2013-10-8,61,51,42,43,40,36,90,67,41,30.30,29.82,6,2,9,0.45
2013-10-9,68,50,37,46,41,35,93,74,39,30.38,30.24,4,0,9,0.00
2013-10-10,70,55,40,49,43,38,94,69,33,30.25,30.11,0,0,2,0.00
2013-10-11,71,53,40,49,44,38,95,77,32,30.13,30.06,4,1,7,0.00
2013-10-12,71,55,44,54,49,42,96,82,49,30.20,30.09,5,1,10,0.00
2013-10-13,69,57,45,55,50,44,97,81,53,30.28,30.16,3,1,6,0.00
2013-10-14,68,59,51,58,54,49,95,85,53,30.22,30.14,5,2,8,0.09
2013-10-15,64,54,45,52,49,44,97,85,60,30.22,29.95,3,0,4,0.00
2013-10-16,70,60,53,57,52,46,93,77,50,29.94,29.67,9,2,11,0.12
2013-10-17,59,59,58,57,57,56,95,93,92,29.68,29.65,7,4,8,0.31
2013-10-18,60,52,45,45,43,41,89,71,50,29.79,29.66,9,3,22,0.00
2013-10-19,63,57,45,48,45,41,90,65,52,29.77,29.51,10,3,11,0.04
2013-10-20,56,49,42,48,39,32,91,69,40,29.90,29.49,8,5,18,0.11
2013-10-21,63,51,37,45,39,35,93,68,40,29.93,29.67,8,2,14,0.00
2013-10-22,62,50,41,49,37,25,93,63,36,29.68,29.59,9,5,14,0.09
2013-10-23,49,42,36,35,32,25,91,69,47,29.67,29.58,6,2,8,0.00
2013-10-24,44,39,32,33,30,25,90,71,58,29.82,29.61,6,3,9,0.00
2013-10-25,44,38,30,32,28,26,82,68,51,30.04,29.83,6,2,7,0.00
2013-10-26,42,39,30,38,34,26,94,82,72,30.01,29.65,11,6,20,0.13
2013-10-27,47,42,38,39,35,29,94,76,51,29.92,29.64,7,3,11,0.06
2013-10-28,44,40,30,40,29,18,88,67,36,30.35,29.86,9,4,13,0.02
2013-10-29,42,31,23,28,22,19,90,72,40,30.43,30.27,4,1,5,0.00
2013-10-30,43,37,31,37,31,23,94,80,66,30.26,30.11,5,2,9,0.02
2013-10-31,62,48,35,57,45,33,97,90,80,30.11,29.40,9,3,12,0.13
2013-11-1,65,59,51,60,51,44,93,76,55,29.51,29.03,18,11,31,0.63
2013-11-2,53,42,35,46,37,22,94,81,59,29.92,29.52,10,4,10,0.00
2013-11-3,38,35,31,23,18,14,70,52,38,30.46,29.92,8,4,9,0.00
2013-11-4,38,30,21,22,18,16,85,62,41,30.65,30.46,5,1,8,0.00
2013-11-5,55,41,29,35,26,19,76,57,35,30.52,30.27,6,1,8,0.00
2013-11-6,62,53,40,50,40,34,82,63,46,30.27,29.62,13,4,13,0.00
2013-11-7,58,45,35,54,37,24,93,72,53,29.83,29.57,12,4,12,0.10
2013-11-8,38,37,35,30,26,22,77,63,53,30.07,29.78,6,3,14,0.00
2013-11-9,40,35,27,34,26,20,93,72,43,30.13,29.75,4,1,8,0.00
2013-11-10,45,41,35,42,38,30,95,89,79,29.89,29.59,7,4,13,0.13
2013-11-11,39,36,27,37,29,19,94,77,61,30.03,29.73,8,5,12,0.26
2013-11-12,29,27,23,18,16,11,72,62,56,30.27,29.96,7,4,13,0.26
2013-11-13,35,27,20,27,15,7,78,62,42,30.30,29.86,8,4,13,0.00
2013-11-14,46,40,36,34,29,24,74,64,49,29.90,29.86,9,5,21,0.00
2013-11-15,52,45,37,31,27,22,68,49,42,30.04,29.90,10,4,21,0.00
2013-11-16,57,41,32,34,30,27,84,68,39,30.16,30.04,6,1,21,0.00
2013-11-17,60,49,31,54,44,27,90,82,66,30.08,29.38,8,2,21,0.08
2013-11-18,62,50,33,55,38,26,91,66,46,29.60,29.20,16,11,24,0.02
2013-11-19,34,31,27,27,18,16,80,59,52,30.36,29.61,7,4,21,0.03
2013-11-20,38,28,20,21,18,15,84,67,43,30.59,30.37,3,0,21,0.00
2013-11-21,46,37,21,26,21,14,85,54,27,30.46,30.24,3,0,5,0.00
2013-11-22,43,38,34,42,35,24,97,88,65,30.24,29.77,8,1,10,0.10
2013-11-23,34,28,20,28,20,11,88,73,63,29.98,29.77,9,5,10,0.01
2013-11-24,22,16,12,10,5,1,72,60,45,30.30,29.91,7,5,14,0.01
2013-11-25,34,22,9,19,10,1,73,60,41,30.35,29.99,8,4,15,0.00
2013-11-26,38,34,32,32,26,19,96,73,54,30.09,29.84,8,4,11,0.14
2013-11-27,34,31,23,33,30,17,97,93,79,29.83,29.40,8,2,11,0.87
2013-11-28,25,20,10,16,10,5,78,67,52,30.39,29.60,7,4,13,0.00
2013-11-29,23,12,5,12,6,0,87,76,58,30.72,30.39,3,0,13,0.00
2013-11-30,23,14,2,17,8,-3,84,77,69,30.73,30.19,2,0,13,0.00
2013-12-1,33,28,21,31,26,17,95,90,84,30.17,29.97,2,0,13,0.02
2013-12-2,32,31,29,30,30,28,96,94,90,29.96,29.83,2,0,13,0.02
2013-12-3,35,31,23,32,29,21,95,91,81,29.97,29.83,1,0,13,0.00
2013-12-4,34,28,22,30,26,20,93,89,81,30.08,29.97,2,0,13,0.00
2013-12-5,54,43,35,50,36,24,92,78,56,30.01,29.61,7,4,21,0.02
2013-12-6,38,35,32,22,21,18,64,57,51,30.11,30.00,4,2,15,0.00
2013-12-7,31,27,24,17,12,10,58,54,48,30.42,30.11,6,3,10,0.00
2013-12-8,31,25,20,16,13,10,73,61,46,30.52,30.36,2,0,10,0.00
2013-12-9,38,30,24,35,24,15,95,79,61,30.34,29.68,10,4,16,0.13
2013-12-10,35,26,19,22,13,7,78,59,47,29.87,29.75,13,4,15,0.13
2013-12-11,18,18,16,9,8,7,68,65,62,29.90,29.87,4,3,14,0.00
2013-12-12,20,17,10,12,5,-5,76,61,43,30.10,29.82,7,5,21,0.00
2013-12-13,10,2,-5,-4,-10,-13,73,58,44,30.57,30.12,6,2,15,0.00
2013-12-14,6,4,3,1,-4,-7,80,70,60,30.49,29.99,6,4,22,0.00
2013-12-15,16,9,-1,12,4,-7,87,80,67,30.02,29.56,4,2,15,0.00
2013-12-16,5,2,-1,-4,-5,-7,74,70,64,30.03,29.94,4,3,8,0.00
2013-12-17,7,5,0,3,0,-5,83,81,78,30.07,29.94,5,2,6,0.00
2013-12-18,24,14,5,21,10,0,88,83,79,29.96,29.87,2,0,5,0.00
2013-12-19,34,29,20,27,24,17,93,82,73,29.99,29.80,6,2,8,0.00
2013-12-20,31,24,19,28,21,16,94,90,84,29.98,29.83,7,3,10,0.00
2013-12-21,22,22,21,20,20,18,92,92,90,29.95,29.75,6,3,7,0.00
2013-12-22,21,20,19,19,18,16,92,91,90,29.95,29.68,9,5,12,0.00
2013-12-23,24,20,16,22,18,12,92,90,82,30.19,29.92,3,1,5,0.00
2013-12-24,15,7,2,10,2,-3,81,77,72,30.38,30.19,3,1,6,0.00
2013-12-25,8,2,-7,1,-4,-13,81,76,69,30.53,30.27,3,1,6,0.00
2013-12-26,22,14,5,20,10,1,91,85,81,30.25,30.02,4,0,5,0.00
2013-12-27,28,22,15,24,19,12,92,88,81,30.14,30.02,4,1,9,0.00
2013-12-28,37,34,19,33,30,16,90,87,84,30.01,29.84,7,4,12,0.32
2013-12-29,36,27,21,33,25,17,95,90,85,29.89,29.51,5,2,7,0.36
2013-12-30,22,8,-1,19,-2,-9,89,65,50,30.22,29.51,5,2,19,0.00
2013-12-31,9,4,-1,4,-3,-9,84,72,50,30.18,29.91,2,0,19,0.00
2014-1-1,5,0,-12,0,-9,-21,81,67,49,30.48,30.09,5,1,19,0.00
2014-1-2,-8,-10,-12,-16,-20,-24,70,62,52,30.47,30.11,8,5,19,0.00